Flugplatz Augsburg (EDMA)

Hier findest Du alle Informationen zum Flugplatz Augsburg (EDMA).

Informationen für Piloten zum Flugplatz Augsburg

Hier findest Du alle relevanten Informationen, die Du als Pilot benötigst, um Augsburg anzufliegen.

Flugplatz: Augsburg ICAO-Code: EDMA
Frequenz Turm: 124,975 Mhz GAFOR Gebiet: 72
Frequenz Ground: 124,975 Mhz Mogas: nein
Platzrunde: - Landegebühr: -
Platzhöhe: - Sunrise: 06:57 Uhr UTC
Pisten: 07/25 - 1.280 m x 30 m, ASPH Sunset: 15:56 Uhr UTC

Flugwetter am Flugplatz Augsburg

Die METAR Information stammen aus EDMA.

METAR Code:
2020/01/04 19:50
EDMA 041950Z 25011KT 9999 OVC028 04/M01 Q1031

Temperatur: 1,0 °C Niederschlag: - Wind: 6,0 kt
Temperatur (min.): -1,0 °C Luftdruck: 1043 hPa Windrichtung: 100 °
Temperatur (max.): 3,3 °C Luftfeuchtigkeit: 86 % Bewölkung: 1/8

Flugschulen am Flugplatz Augsburg

Am Flugplatz Augsburg gibt es 2 Flugschulen.

Benachbarte Flugplätze und Flugschulen

Es gibt 16 weitere Flugplätze in einem Umkreis von 50 km um den Flugplatz Augsburg.

Jetzt anmelden

Passwort vergessen

Umfrage Archiv

Lasst Ihr Euch bei Überlandflügen von FIS begleiten?

Ja, immer!
43.6 %
Ja, unregelmäßig!
28.2 %
Ja, aber nur selten!
18.8 %
Nein, nie!
9.4 %
Stimmen: 149 | Diskussion
Anzeige: Roland Aircraft
Statistik Alle Mitglieder

Aktuell sind 22 Besucher online, davon 1 Mitglied und 21 Gäste.


Mitglieder online:
raller 

Anzeige: VFR Sprechfunk Simulator


Anzeige: Pocket FMS